Latest Weather Observations for Trepell

IDQ60801

Issued at 12:52 pm EST Monday 19 November 2018 (issued every 10 minutes, with the page automatically refreshed every 10 minutes)

About weather observations | Map of weather stations | Latest weather observations for QLD | Other Formats
Station Details ID: 037036 Name: TREPELL AIRPORT Lat: -21.84 Lon: 140.89 Height: 266.2 m
Data from the previous 72 hours. | See also: Recent months at Trepell
Date/Time
EST
Temp
°C
App
Temp
°C
Dew
Point
°C
Rel
Hum
%
Delta-T
°C
Wind Press
QNH
hPa
Press
MSL
hPa
Rain since
9am
mm
Dir  Spd
km/h
Gust
km/h
Spd
kts
Gust
kts
19/12:30pm 32.7 30.6 15.2 34 11.0 NNE 20 30 11 16 1010.6 1008.7 0.0
19/12:00pm 32.2 30.2 13.9 33 11.2 N 17 24 9 13 1010.8 1008.9 0.0
19/11:30am 32.4 31.6 15.0 35 10.8 N 13 19 7 10 1011.1 1009.2 0.0
19/11:00am 32.0 30.3 14.6 34 10.8 N 17 26 9 14 1011.6 1009.7 0.0
19/10:30am 30.8 28.6 16.0 40 9.3 NNE 22 30 12 16 1011.7 1009.9 0.0
19/10:00am 29.9 27.6 16.7 45 8.4 NNE 24 30 13 16 1012.1 1010.2 0.0
19/09:30am 28.5 27.0 16.7 48 7.4 NE 20 28 11 15 1012.1 1010.2 0.0
19/09:00am 27.7 25.5 16.9 51 6.8 NE 24 30 13 16 1012.2 1010.3 0.2
19/08:30am 28.4 27.2 16.0 47 7.7 NE 17 24 9 13 1012.0 1010.1 0.2
19/08:00am 28.3 26.9 15.6 46 7.9 N 17 24 9 13 1011.6 1009.7 0.2
19/07:30am 27.8 26.6 16.1 49 7.3 W 17 22 9 12 1010.7 1008.8 0.2
19/07:00am 27.2 26.7 15.9 50 7.0 WNW 13 17 7 9 1010.3 1008.4 0.2
19/06:30am 26.6 25.1 16.2 52 6.5 WNW 19 20 10 11 1010.0 1008.1 0.2
19/06:00am 26.0 24.6 16.5 55 5.9 WNW 19 24 10 13 1009.8 1007.9 0.2
19/05:30am 26.1 24.5 16.1 54 6.2 W 19 24 10 13 1009.7 1007.8 0.2
19/05:00am 26.3 25.5 16.0 53 6.4 W 15 20 8 11 1009.4 1007.5 0.2
19/04:30am 26.1 25.3 16.1 54 6.2 WNW 15 17 8 9 1009.1 1007.2 0.2
19/04:00am 26.3 24.8 16.3 54 6.2 WNW 19 24 10 13 1009.1 1007.2 0.2
19/03:30am 26.3 25.2 16.3 54 6.2 NW 17 22 9 12 1008.9 1007.0 0.2
19/03:00am 26.3 24.9 16.5 54 6.1 NW 19 24 10 13 1009.1 1007.2 0.2
19/02:30am 26.5 24.9 16.1 52 6.5 NW 19 24 10 13 1009.4 1007.5 0.2
19/02:00am 26.6 24.3 15.6 50 6.8 NW 22 30 12 16 1009.8 1007.9 0.2
19/01:30am 26.9 25.3 15.0 48 7.3 NNW 17 22 9 12 1010.2 1008.3 0.2
19/01:00am 26.9 24.9 15.0 48 7.3 N 19 28 10 15 1010.3 1008.4 0.2
19/12:30am 27.0 25.0 15.4 49 7.1 N 20 35 11 19 1010.5 1008.6 0.2
19/12:00am 26.7 24.7 15.4 50 6.9 N 20 28 11 15 1010.7 1008.8 0.2
 
Date/Time
EST
Temp
°C
App
Temp
°C
Dew
Point
°C
Rel
Hum
%
Delta-T
°C
Wind Press
QNH
hPa
Press
MSL
hPa
Rain since
9am
mm
Dir  Spd
km/h
Gust
km/h
Spd
kts
Gust
kts
18/11:30pm 27.3 24.4 15.0 47 7.5 N 24 32 13 17 1010.8 1008.9 0.2
18/11:00pm 27.1 24.8 15.8 50 7.0 N 22 35 12 19 1011.2 1009.3 0.2
18/10:30pm 26.8 23.8 16.7 54 6.3 N 28 41 15 22 1011.5 1009.6 0.2
18/10:00pm 27.4 24.6 16.4 51 6.9 N 26 37 14 20 1011.2 1009.3 0.2
18/09:30pm 28.1 25.8 16.7 50 7.2 N 24 32 13 17 1010.8 1008.9 0.2
18/09:00pm 28.0 25.0 16.9 51 7.0 NNE 28 35 15 19 1010.3 1008.4 0.2
18/08:30pm 29.1 26.5 16.0 45 8.2 NE 24 33 13 18 1010.2 1008.3 0.2
18/08:00pm 30.1 27.4 14.6 39 9.5 NNE 22 28 12 15 1009.8 1007.9 0.2
18/07:30pm 30.0 27.9 15.3 41 9.1 NNE 20 26 11 14 1009.5 1007.6 0.2
18/07:00pm 30.1 28.5 15.0 40 9.4 NE 17 20 9 11 1009.1 1007.2 0.2
18/06:30pm 30.7 29.2 15.2 39 9.6 NNE 17 24 9 13 1008.9 1007.0 0.2
18/06:00pm 31.3 28.9 14.4 35 10.4 ENE 20 24 11 13 1008.4 1006.5 0.2
18/05:30pm 31.8 27.5 13.1 32 11.3 E 28 39 15 21 1008.1 1006.1 0.2
18/05:07pm 32.9 30.2 13.5 30 11.9 ENE 20 35 11 19 1007.4 1005.5 0.2
18/05:00pm 33.3 33.1 16.6 36 10.7 ENE 13 15 7 8 1006.8 1004.9 0.2
18/04:30pm 34.4 33.5 12.7 27 13.2 N 9 15 5 8 1006.7 1004.8 0.2
18/04:00pm 33.6 31.9 13.6 29 12.3 N 15 20 8 11 1007.1 1005.2 0.2
18/03:30pm 32.8 30.8 14.9 34 11.2 N 19 35 10 19 1007.3 1005.4 0.2
18/03:10pm 30.7 28.5 15.9 40 9.3 WNW 22 33 12 18 1007.6 1005.7 0.2
18/03:00pm 35.8 33.8 11.4 23 14.6 W 13 28 7 15 1007.6 1005.7 0.0
18/02:30pm 38.0 35.1 9.6 18 16.7 WSW 15 22 8 12 1007.2 1005.3 0.0
18/02:00pm 39.5 37.3 10.8 18 17.3 N 13 26 7 14 1007.6 1005.7 0.0
18/01:30pm 37.6 34.8 10.0 19 16.3 NNW 15 35 8 19 1008.3 1006.3 0.0
18/01:00pm 37.4 34.4 9.1 18 16.5 NNW 15 22 8 12 1008.9 1007.0 0.0
18/12:30pm 37.4 35.3 9.9 19 16.2 N 11 17 6 9 1009.2 1007.3 0.0
18/12:00pm 37.6 35.4 9.2 18 16.6 NNW 11 19 6 10 1009.5 1007.6 0.0
18/11:30am 37.2 33.9 9.7 19 16.2 NNE 17 26 9 14 1010.0 1008.1 0.0
18/11:00am 36.9 34.5 10.2 20 15.8 NNW 13 22 7 12 1010.2 1008.3 0.0
18/10:30am 36.8 35.0 10.9 21 15.5 NE 11 19 6 10 1010.3 1008.4 0.0
18/10:00am 36.5 34.1 11.3 22 15.1 NE 15 28 8 15 1010.2 1008.3 0.0
18/09:30am 35.4 32.2 11.1 23 14.5 NE 19 32 10 17 1010.4 1008.5 0.0
18/09:00am 35.2 33.2 11.6 24 14.2 NE 13 17 7 9 1010.3 1008.4 0.0
18/08:30am 34.0 32.3 11.2 25 13.5 NE 11 17 6 9 1010.2 1008.3 0.0
18/08:00am 32.7 31.4 11.3 27 12.7 N 9 13 5 7 1010.0 1008.1 0.0
18/07:30am 30.4 30.0 12.3 33 10.8 N 6 7 3 4 1009.5 1007.6 0.0
18/07:00am 28.5 29.8 14.0 41 8.8 CALM 0 6 0 3 1009.2 1007.3 0.0
18/06:30am 26.8 27.9 14.5 46 7.5 SE 2 6 1 3 1009.1 1007.2 0.0
18/06:00am 25.4 26.5 14.5 51 6.6 SW 2 6 1 3 1008.9 1007.0 0.0
18/05:30am 25.6 25.8 14.1 49 6.9 NNE 6 7 3 4 1008.5 1006.6 0.0
18/05:00am 26.0 25.9 13.8 47 7.3 NE 7 9 4 5 1008.3 1006.3 0.0
18/04:30am 26.5 25.8 13.3 44 7.8 NNW 9 11 5 6 1008.2 1006.2 0.0
18/04:00am 28.0 27.0 13.5 41 8.7 NW 11 13 6 7 1008.2 1006.2 0.0
18/03:30am 28.0 27.5 12.8 39 9.0 WNW 7 9 4 5 1008.4 1006.5 0.0
18/03:00am 28.2 27.3 12.5 37 9.3 SSW 9 11 5 6 1008.4 1006.5 0.0
18/02:30am 28.4 27.9 11.9 36 9.7 WSW 6 7 3 4 1008.1 1006.1 0.0
18/02:00am 28.7 27.1 11.7 35 10.0 SSW 11 13 6 7 1008.4 1006.5 0.0
18/01:30am 28.8 27.3 11.8 35 10.0 S 11 15 6 8 1008.6 1006.7 0.0
18/01:00am 30.4 28.8 11.4 31 11.1 W 11 17 6 9 1008.9 1007.0 0.0
18/12:30am 30.6 29.1 12.0 32 11.0 W 11 15 6 8 1009.0 1007.1 0.0
18/12:00am 31.1 30.0 12.0 31 11.3 NNW 9 11 5 6 1009.5 1007.6 0.0
 
Date/Time
EST
Temp
°C
App
Temp
°C
Dew
Point
°C
Rel
Hum
%
Delta-T
°C
Wind Press
QNH
hPa
Press
MSL
hPa
Rain since
9am
mm
Dir  Spd
km/h
Gust
km/h
Spd
kts
Gust
kts
17/11:30pm 30.8 28.8 12.7 33 10.8 NNW 15 17 8 9 1009.5 1007.6 0.0
17/11:00pm 31.0 29.3 12.4 32 11.1 NNW 13 19 7 10 1009.9 1008.0 0.0
17/10:30pm 30.8 29.4 12.2 32 11.0 W 11 15 6 8 1010.2 1008.3 0.0
17/10:00pm 30.6 28.9 12.5 33 10.8 W 13 17 7 9 1010.3 1008.4 0.0
17/09:30pm 30.4 29.3 13.2 35 10.4 WNW 11 13 6 7 1010.1 1008.2 0.0
17/09:00pm 30.2 30.4 11.7 32 10.9 NE 2 7 1 4 1010.0 1008.1 0.0
17/08:30pm 31.0 29.5 11.9 31 11.3 NNE 11 13 6 7 1009.9 1008.0 0.0
17/08:00pm 31.6 29.7 11.9 30 11.7 NE 13 17 7 9 1009.5 1007.6 0.0
17/07:30pm 32.2 29.4 11.4 28 12.3 NE 17 20 9 11 1009.5 1007.6 0.0
17/07:00pm 32.5 29.6 11.1 27 12.6 ENE 17 20 9 11 1009.5 1007.6 0.0
17/06:30pm 33.6 30.3 10.9 25 13.4 ENE 19 24 10 13 1009.4 1007.5 0.0
17/06:00pm 34.0 29.4 11.2 25 13.5 E 26 32 14 17 1009.0 1007.1 0.0
17/05:30pm 33.8 29.9 12.2 27 13.0 ENE 24 32 13 17 1008.8 1006.9 0.0
17/05:10pm 35.0 30.1 11.4 24 14.1 ESE 28 50 15 27 1008.2 1006.2 0.0
17/05:00pm 34.8 30.1 10.6 23 14.3 E 26 37 14 20 1007.9 1006.0 0.0
17/04:30pm 36.3 30.4 9.0 19 15.8 NW 30 48 16 26 1007.5 1005.6 0.0
17/04:28pm 36.8 29.6 7.8 17 16.5 NW 35 59 19 32 1007.4 1005.5 0.0
17/04:21pm 35.4 28.3 9.7 21 15.0 W 37 59 20 32 1007.6 1005.7 0.0
17/04:18pm 35.5 29.6 12.5 25 14.0 WSW 35 59 19 32 1007.4 1005.5 0.0
17/04:06pm 35.4 29.9 9.0 20 15.2 SW 28 56 15 30 1007.5 1005.6 0.0
17/04:00pm 36.9 34.1 8.7 18 16.3 SW 13 35 7 19 1007.6 1005.7 0.0
17/03:30pm 38.2 36.2 7.0 15 17.7 W 7 11 4 6 1007.5 1005.6 0.0
17/03:00pm 38.8 36.0 8.5 16 17.6 NNW 13 20 7 11 1007.7 1005.8 0.0
17/02:30pm 37.9 35.3 7.7 16 17.3 N 11 17 6 9 1008.4 1006.5 0.0
17/02:00pm 38.0 34.6 7.8 16 17.3 NNE 15 24 8 13 1009.0 1007.1 0.0
17/01:30pm 38.0 34.1 8.7 17 17.0 N 19 28 10 15 1009.7 1007.8 0.0
17/01:00pm 38.4 36.7 9.9 18 16.9 NE 9 19 5 10 1010.3 1008.4 0.0
17/12:30pm 37.6 35.0 9.2 18 16.6 WNW 13 20 7 11 1010.6 1008.7 0.0
17/12:00pm 37.2 34.7 9.7 19 16.2 NW 13 20 7 11 1011.0 1009.1 0.0
17/11:30am 37.9 34.4 10.3 19 16.4 NNE 19 32 10 17 1011.5 1009.6 0.0
17/11:00am 36.8 32.0 10.2 20 15.7 NNE 26 37 14 20 1011.8 1010.0 0.0
17/10:30am 36.6 32.7 12.1 23 14.9 NNE 24 33 13 18 1012.2 1010.3 0.0
17/10:00am 35.0 30.7 12.0 25 13.9 NNE 26 33 14 18 1012.3 1010.4 0.0
17/09:30am 34.6 30.6 11.7 25 13.7 NNE 24 32 13 17 1012.6 1010.7 0.0
17/09:00am 33.9 29.5 11.7 26 13.3 NNE 26 32 14 17 1012.4 1010.5 0.0
17/08:30am 32.7 28.0 10.7 26 12.9 NNE 26 33 14 18 1012.3 1010.4 0.0
17/08:00am 31.4 27.5 12.2 30 11.4 NE 24 32 13 17 1012.1 1010.2 0.0
17/07:30am 30.9 28.6 11.8 31 11.3 NNE 15 20 8 11 1011.8 1010.0 0.0
17/07:00am 28.8 28.2 13.5 39 9.2 NE 9 13 5 7 1011.3 1009.4 0.0
17/06:30am 26.6 26.1 15.0 49 7.1 NNE 11 13 6 7 1011.1 1009.2 0.0
17/06:00am 24.9 25.4 15.5 56 5.8 ENE 7 11 4 6 1010.8 1008.9 0.0
17/05:30am 25.4 25.8 15.4 54 6.1 ENE 7 9 4 5 1010.5 1008.6 0.0
17/05:00am 26.5 25.3 12.9 43 8.0 NE 11 13 6 7 1010.0 1008.1 0.0
17/04:30am 27.8 27.0 13.0 40 8.8 N 9 13 5 7 1009.9 1008.0 0.0
17/04:00am 27.6 26.8 13.9 43 8.3 NE 11 13 6 7 1009.9 1008.0 0.0
17/03:30am 28.5 27.9 13.6 40 9.0 NW 9 9 5 5 1010.0 1008.1 0.0
17/03:00am 28.8 28.2 13.5 39 9.2 NNW 9 11 5 6 1009.9 1008.0 0.0
17/02:30am 29.0 28.2 12.8 36 9.6 ENE 9 13 5 7 1010.1 1008.2 0.0
17/02:00am 28.9 27.6 13.6 39 9.2 E 13 19 7 10 1010.5 1008.6 0.0
17/01:30am 28.6 26.8 13.3 39 9.2 E 15 20 8 11 1010.9 1009.0 0.0
17/01:00am 29.0 26.2 13.2 37 9.5 S 20 33 11 18 1011.5 1009.6 0.0
17/12:30am 30.3 29.0 11.3 31 11.1 NE 9 11 5 6 1010.8 1008.9 0.0
17/12:00am 29.9 28.0 11.9 33 10.6 NE 13 15 7 8 1011.0 1009.1 0.0
 
Date/Time
EST
Temp
°C
App
Temp
°C
Dew
Point
°C
Rel
Hum
%
Delta-T
°C
Wind Press
QNH
hPa
Press
MSL
hPa
Rain since
9am
mm
Dir  Spd
km/h
Gust
km/h
Spd
kts
Gust
kts
16/11:30pm 30.8 29.9 10.7 29 11.7 SSW 6 7 3 4 1011.5 1009.6 0.0
16/11:00pm 31.3 30.6 10.1 27 12.2 SSW 4 7 2 4 1011.6 1009.7 0.0
16/10:30pm 31.3 29.8 10.6 28 12.0 E 9 13 5 7 1011.6 1009.7 0.0
16/10:00pm 31.9 30.0 10.6 27 12.4 ESE 11 19 6 10 1011.7 1009.9 0.0
16/09:30pm 31.9 30.2 11.1 28 12.2 W 11 17 6 9 1011.5 1009.6 0.0
16/09:00pm 32.3 30.8 10.4 26 12.7 NW 9 11 5 6 1011.0 1009.1 0.0
16/08:30pm 32.0 30.2 9.5 25 12.9 NE 9 13 5 7 1010.8 1008.9 0.0
16/08:00pm 32.1 28.2 9.6 25 12.9 NE 20 30 11 16 1010.8 1008.9 0.0
16/07:30pm 32.5 28.7 9.9 25 13.0 ENE 20 30 11 16 1010.5 1008.6 0.0
16/07:08pm 30.1 23.3 12.1 33 10.6 ENE 39 57 21 31 1010.4 1008.5 0.0
16/07:00pm 30.3 22.8 12.2 33 10.7 ENE 43 57 23 31 1010.5 1008.6 0.0
16/06:44pm 29.5 23.3 13.7 38 9.6 ENE 39 59 21 32 1010.1 1008.2 0.0
16/06:30pm 29.6 25.4 13.4 37 9.8 E 28 41 15 22 1010.7 1008.8 0.0
16/06:27pm 31.0 26.7 13.3 34 10.7 ESE 28 41 15 22 1010.7 1008.8 0.0
16/06:13pm 31.2 25.9 12.5 31 11.2 E 32 46 17 25 1010.7 1008.8 0.0
16/06:00pm 32.8 27.1 11.9 28 12.5 WNW 33 43 18 23 1010.2 1008.3 0.0
16/05:46pm 32.8 29.2 11.9 28 12.5 W 22 69 12 37 1009.7 1007.8 0.0
16/05:30pm 35.2 31.5 9.6 21 14.9 W 19 24 10 13 1009.5 1007.6 0.0
16/05:00pm 37.4 35.1 9.1 18 16.5 NNE 11 20 6 11 1009.3 1007.4 0.0
16/04:30pm 37.8 36.2 8.6 17 16.9 NE 7 15 4 8 1009.2 1007.3 0.0
16/04:00pm 38.1 35.0 8.8 17 17.1 NE 15 22 8 12 1009.3 1007.4 0.0
16/03:30pm 37.7 34.5 8.5 17 16.9 NE 15 26 8 14 1009.4 1007.5 0.0
16/03:00pm 37.6 34.4 8.4 17 16.9 ENE 15 20 8 11 1009.7 1007.8 0.0
16/02:30pm 38.1 35.3 7.0 15 17.6 E 11 19 6 10 1010.2 1008.3 0.0
16/02:00pm 39.1 36.3 8.7 16 17.8 NE 13 30 7 16 1010.5 1008.6 0.0
16/01:30pm 38.9 37.2 8.5 16 17.7 ENE 7 15 4 8 1011.1 1009.2 0.0
16/01:00pm 37.7 34.5 8.5 17 16.9 N 15 26 8 14 1011.8 1010.0 0.0

Other Formats:

Comma delimited format used in spreadsheet applications
http://www.bom.gov.au/fwo/IDQ60801/IDQ60801.94338.axf

JavaScript Object Notation format (JSON) in row-major order
http://www.bom.gov.au/fwo/IDQ60801/IDQ60801.94338.json